Time;durP1;ratioP1;P1;durP2;ratioP2;P2;SDS_P1;SDS_P2;PMS_P1;PMS_P2;Temp;Humidity;BMP_temperature;BMP_pressure;BME280_temperature;BME280_humidity;BME280_pressure;Samples;Min_cycle;Max_cycle;Signal;HPM_P1;HPM_P2
2021/12/08 00:01:21;;;;;;;10.80;4.13;;;3.10;99.90;;;;;;4898323;29;20143;-68
2021/12/08 00:03:48;;;;;;;8.48;4.15;;;3.10;99.90;;;;;;4887403;29;20061;-68
2021/12/08 00:06:14;;;;;;;7.28;4.32;;;3.10;99.90;;;;;;4880366;29;20056;-70
2021/12/08 00:08:46;;;;;;;9.52;4.50;;;3.00;99.90;;;;;;4898502;29;20074;-67
2021/12/08 00:13:56;;;;;;;9.38;4.13;;;3.10;99.90;;;;;;4916216;29;20064;-68
2021/12/08 00:16:22;;;;;;;6.68;3.92;;;3.00;99.90;;;;;;4916070;29;20056;-69
2021/12/08 00:18:49;;;;;;;7.78;4.78;;;3.10;99.90;;;;;;4897793;29;20091;-68
2021/12/08 00:21:16;;;;;;;7.28;4.32;;;3.10;99.90;;;;;;4883184;29;20075;-69
2021/12/08 00:23:43;;;;;;;8.15;4.57;;;3.10;99.90;;;;;;4899350;29;20492;-69
2021/12/08 00:26:09;;;;;;;8.20;4.30;;;3.10;99.90;;;;;;4915610;29;20060;-69
2021/12/08 00:28:34;;;;;;;9.98;4.40;;;3.10;99.90;;;;;;4898694;29;20104;-68
2021/12/08 00:31:03;;;;;;;7.78;4.38;;;3.10;99.90;;;;;;4918482;29;20459;-67
2021/12/08 00:33:30;;;;;;;6.45;4.18;;;3.00;99.90;;;;;;4910955;29;20061;-69
2021/12/08 00:35:59;;;;;;;7.53;4.40;;;3.10;99.90;;;;;;4883256;29;20080;-68
2021/12/08 00:38:25;;;;;;;8.45;4.82;;;3.10;99.90;;;;;;4883687;29;20048;-69
2021/12/08 00:40:52;;;;;;;8.10;4.57;;;3.10;99.90;;;;;;4900916;29;20548;-67
2021/12/08 00:43:18;;;;;;;12.25;4.90;;;3.10;99.90;;;;;;4919134;29;20056;-69
2021/12/08 00:45:45;;;;;;;7.10;4.32;;;3.10;99.90;;;;;;4919076;29;20060;-68
2021/12/08 00:48:10;;;;;;;10.93;4.30;;;3.10;99.90;;;;;;4911143;29;20479;-66
2021/12/08 00:50:38;;;;;;;6.40;4.60;;;3.10;99.90;;;;;;4889792;29;20072;-66
2021/12/08 00:53:04;;;;;;;8.07;4.70;;;3.10;99.90;;;;;;4902134;29;20052;-68
2021/12/08 00:55:31;;;;;;;13.80;4.75;;;3.10;99.90;;;;;;4899052;29;20123;-66
2021/12/08 00:57:57;;;;;;;7.60;5.10;;;3.10;99.90;;;;;;4891155;29;20049;-65
2021/12/08 01:00:29;;;;;;;7.85;4.65;;;3.10;99.90;;;;;;4909339;29;20103;-66
2021/12/08 01:02:56;;;;;;;9.35;4.85;;;3.20;99.90;;;;;;4918553;29;20047;-66
2021/12/08 01:05:28;;;;;;;9.05;4.43;;;3.20;99.90;;;;;;4918099;29;20537;-66
2021/12/08 01:07:53;;;;;;;11.27;5.00;;;3.20;99.90;;;;;;4891030;29;20056;-68
2021/12/08 01:10:22;;;;;;;7.63;4.70;;;3.20;99.90;;;;;;4905652;29;20116;-66
2021/12/08 01:12:48;;;;;;;9.32;4.50;;;3.30;99.90;;;;;;4916203;29;20056;-66
2021/12/08 01:15:14;;;;;;;6.10;4.47;;;3.30;99.90;;;;;;4886116;29;20119;-68
2021/12/08 01:17:40;;;;;;;11.70;4.65;;;3.30;99.90;;;;;;4889094;29;20128;-68
2021/12/08 01:20:08;;;;;;;6.63;4.40;;;3.30;99.90;;;;;;4893059;29;20146;-66
2021/12/08 01:22:34;;;;;;;8.02;4.38;;;3.30;99.90;;;;;;4901698;29;20048;-66
2021/12/08 01:24:59;;;;;;;7.68;4.22;;;3.30;99.90;;;;;;4911556;29;20071;-67
2021/12/08 01:27:25;;;;;;;6.53;4.22;;;3.40;99.90;;;;;;4882492;29;20052;-67
2021/12/08 01:29:51;;;;;;;6.20;4.13;;;3.40;99.90;;;;;;4883664;29;20060;-66
2021/12/08 01:32:19;;;;;;;6.78;4.40;;;3.40;99.90;;;;;;4898300;29;20049;-67
2021/12/08 01:34:44;;;;;;;8.40;4.20;;;3.40;99.90;;;;;;4882388;29;20063;-66
2021/12/08 01:37:10;;;;;;;7.55;4.47;;;3.40;99.90;;;;;;4883012;29;20053;-66
2021/12/08 01:39:36;;;;;;;12.40;4.30;;;3.40;99.90;;;;;;4898443;29;20112;-67
2021/12/08 01:42:02;;;;;;;7.18;4.68;;;3.50;99.90;;;;;;4881426;29;20405;-67
2021/12/08 01:47:11;;;;;;;6.32;4.25;;;3.50;99.90;;;;;;4898696;29;20052;-66
2021/12/08 01:49:37;;;;;;;8.30;4.60;;;3.50;99.90;;;;;;4881968;29;20056;-66
2021/12/08 01:52:03;;;;;;;6.30;4.35;;;3.50;99.90;;;;;;4897927;29;20107;-67
2021/12/08 01:54:29;;;;;;;8.63;4.47;;;3.60;99.90;;;;;;4888386;29;20106;-68
2021/12/08 01:56:56;;;;;;;10.05;3.85;;;3.50;99.90;;;;;;4900182;29;20437;-66
2021/12/08 01:59:22;;;;;;;7.68;4.35;;;3.50;99.90;;;;;;4890805;29;20044;-66
2021/12/08 02:01:48;;;;;;;9.75;4.30;;;3.60;99.90;;;;;;4904039;29;20486;-67
2021/12/08 02:04:15;;;;;;;6.13;4.20;;;3.60;99.90;;;;;;4897131;29;20055;-67
2021/12/08 02:06:44;;;;;;;7.30;4.47;;;3.60;99.90;;;;;;4900795;29;20504;-66
2021/12/08 02:09:12;;;;;;;6.70;4.57;;;3.50;99.90;;;;;;4917477;29;20402;-67
2021/12/08 02:11:40;;;;;;;7.30;4.00;;;3.60;99.90;;;;;;4900021;29;20076;-67
2021/12/08 02:14:06;;;;;;;9.00;4.07;;;3.60;99.90;;;;;;4903689;29;20070;-67
2021/12/08 02:16:32;;;;;;;4.85;4.20;;;3.60;99.90;;;;;;4900549;29;20127;-66
2021/12/08 02:18:58;;;;;;;9.90;4.63;;;3.60;99.90;;;;;;4917479;29;20074;-68
2021/12/08 02:21:32;;;;;;;8.35;5.18;;;3.60;99.90;;;;;;4899906;29;20064;-67
2021/12/08 02:24:01;;;;;;;6.80;4.22;;;3.60;99.90;;;;;;4900501;29;20544;-68
2021/12/08 02:26:27;;;;;;;8.13;4.97;;;3.60;99.90;;;;;;4899319;29;20092;-68
2021/12/08 02:28:54;;;;;;;7.47;4.60;;;3.60;99.90;;;;;;4885956;29;20136;-68
2021/12/08 02:31:31;;;;;;;6.30;4.25;;;3.50;99.90;;;;;;4916160;29;20052;-67
2021/12/08 02:48:12;;;;;;;7.57;4.47;;;3.50;99.90;;;;;;4899482;29;20056;-66
2021/12/08 02:50:36;;;;;;;9.63;4.32;;;3.50;99.90;;;;;;4896863;29;20134;-67
2021/12/08 02:53:03;;;;;;;8.63;4.72;;;3.50;99.90;;;;;;4900057;29;20052;-66
2021/12/08 02:55:30;;;;;;;7.07;4.13;;;3.60;99.90;;;;;;4899933;29;20453;-67
2021/12/08 02:57:56;;;;;;;6.97;4.22;;;3.50;99.90;;;;;;4887415;29;20060;-67
2021/12/08 03:00:26;;;;;;;9.18;4.80;;;3.50;99.90;;;;;;4915801;29;20501;-67
2021/12/08 03:02:55;;;;;;;8.55;4.45;;;3.60;99.90;;;;;;4899958;29;20081;-67
2021/12/08 03:05:22;;;;;;;7.22;5.43;;;3.60;99.90;;;;;;4899002;29;20497;-67
2021/12/08 03:07:48;;;;;;;5.95;5.00;;;3.60;99.90;;;;;;4916484;29;20059;-67
2021/12/08 03:10:17;;;;;;;9.55;5.15;;;3.70;99.90;;;;;;4909391;29;20052;-66
2021/12/08 03:12:43;;;;;;;7.22;5.15;;;3.60;99.90;;;;;;4881278;29;20066;-67
2021/12/08 03:15:11;;;;;;;7.55;5.25;;;3.70;99.90;;;;;;4896371;29;20060;-66
2021/12/08 03:17:38;;;;;;;8.98;5.40;;;3.70;99.90;;;;;;4899992;29;20052;-68
2021/12/08 03:20:09;;;;;;;7.82;4.78;;;3.60;99.90;;;;;;4898551;29;20058;-67
2021/12/08 03:22:40;;;;;;;7.53;5.38;;;3.70;99.90;;;;;;4899997;29;20052;-66
2021/12/08 03:25:09;;;;;;;11.02;5.90;;;3.70;99.90;;;;;;4899775;29;20079;-66
2021/12/08 03:27:42;;;;;;;10.80;5.70;;;3.70;99.90;;;;;;4915790;29;20119;-66
2021/12/08 03:30:16;;;;;;;7.78;5.63;;;3.80;99.90;;;;;;4911741;29;20100;-67
2021/12/08 03:32:42;;;;;;;8.35;5.85;;;3.80;99.90;;;;;;4880694;29;20067;-67
2021/12/08 03:35:16;;;;;;;7.57;6.22;;;3.80;99.90;;;;;;4879981;29;20071;-68
2021/12/08 03:37:45;;;;;;;8.73;6.22;;;3.90;99.90;;;;;;4880535;29;20123;-67
2021/12/08 03:40:15;;;;;;;9.15;5.82;;;3.90;99.90;;;;;;4897656;29;20382;-67
2021/12/08 03:42:41;;;;;;;9.50;5.85;;;3.90;99.90;;;;;;4894270;29;20060;-66
2021/12/08 03:45:15;;;;;;;10.30;5.90;;;4.00;99.90;;;;;;4899606;29;20060;-67
2021/12/08 03:47:44;;;;;;;10.95;6.53;;;4.00;99.90;;;;;;4916195;29;20052;-66
2021/12/08 03:50:13;;;;;;;9.27;6.72;;;4.00;99.90;;;;;;4915251;29;20445;-67
2021/12/08 03:52:40;;;;;;;8.07;7.15;;;4.00;99.90;;;;;;4899455;29;20059;-68
2021/12/08 03:55:08;;;;;;;10.48;6.50;;;4.10;99.90;;;;;;4905450;29;20040;-67
2021/12/08 03:57:33;;;;;;;9.85;7.22;;;4.10;99.90;;;;;;4892748;29;20056;-68
2021/12/08 04:00:00;;;;;;;8.77;7.45;;;4.10;99.90;;;;;;4901484;29;20484;-67
2021/12/08 04:02:26;;;;;;;10.00;7.70;;;4.20;99.90;;;;;;4915097;29;20354;-68
2021/12/08 04:04:52;;;;;;;12.40;8.20;;;4.10;99.90;;;;;;4905262;29;20056;-67
2021/12/08 04:07:19;;;;;;;10.73;7.80;;;4.20;99.90;;;;;;4900819;29;20075;-68
2021/12/08 04:09:48;;;;;;;11.27;7.85;;;4.30;99.90;;;;;;4897798;29;20056;-66
2021/12/08 04:12:19;;;;;;;8.45;7.25;;;4.30;99.90;;;;;;4902645;29;20047;-66
2021/12/08 04:14:54;;;;;;;9.07;8.02;;;4.30;99.90;;;;;;4902531;29;20056;-67
2021/12/08 04:17:29;;;;;;;10.63;8.10;;;4.30;99.90;;;;;;4920210;29;20070;-67
2021/12/08 04:19:57;;;;;;;9.93;7.43;;;4.40;99.90;;;;;;4918651;29;20136;-66
2021/12/08 04:22:33;;;;;;;11.20;8.45;;;4.40;99.90;;;;;;4902957;29;20044;-67
2021/12/08 04:25:00;;;;;;;9.77;8.20;;;4.40;99.90;;;;;;4902565;29;20059;-68
2021/12/08 04:27:30;;;;;;;12.77;9.27;;;4.40;99.90;;;;;;4902576;29;20060;-66
2021/12/08 04:29:56;;;;;;;10.00;7.85;;;4.50;99.90;;;;;;4909484;29;20052;-67
2021/12/08 04:32:25;;;;;;;12.43;8.73;;;4.50;99.90;;;;;;4919223;29;20055;-66
2021/12/08 04:34:56;;;;;;;13.60;8.35;;;4.50;99.90;;;;;;4901799;29;20059;-68
2021/12/08 04:37:28;;;;;;;11.98;8.52;;;4.50;99.90;;;;;;4917272;29;20092;-66
2021/12/08 04:40:17;;;;;;;10.73;8.60;;;4.50;99.90;;;;;;4917286;29;20059;-67
2021/12/08 04:43:01;;;;;;;8.55;7.68;;;4.60;99.90;;;;;;4919207;29;20506;-66
2021/12/08 04:45:43;;;;;;;8.48;7.68;;;4.60;99.90;;;;;;4893362;29;20390;-67
2021/12/08 04:48:23;;;;;;;9.98;7.70;;;4.60;99.90;;;;;;4919303;29;20052;-68
2021/12/08 04:53:46;;;;;;;9.32;7.80;;;4.70;99.90;;;;;;4919068;29;20492;-66
2021/12/08 05:04:29;;;;;;;11.90;7.47;;;4.70;99.90;;;;;;4918982;29;20139;-66
2021/12/08 05:09:33;;;;;;;12.70;8.07;;;4.70;99.90;;;;;;4897498;29;20060;-66
2021/12/08 05:12:07;;;;;;;10.43;7.75;;;4.60;99.90;;;;;;4912522;29;20052;-66
2021/12/08 05:14:46;;;;;;;10.65;7.60;;;4.60;99.90;;;;;;4900848;29;20059;-66
2021/12/08 05:17:18;;;;;;;8.50;7.57;;;4.60;99.90;;;;;;4881661;29;20057;-67
2021/12/08 05:19:47;;;;;;;12.18;7.13;;;4.50;99.90;;;;;;4909100;29;20060;-66
2021/12/08 05:22:28;;;;;;;7.88;6.82;;;4.60;99.90;;;;;;4917800;29;20048;-68
2021/12/08 05:24:56;;;;;;;11.70;7.20;;;4.50;99.90;;;;;;4892240;29;20465;-67
2021/12/08 05:27:29;;;;;;;11.48;7.80;;;4.50;99.90;;;;;;4880205;29;20053;-67
2021/12/08 05:30:32;;;;;;;11.38;7.60;;;4.50;99.90;;;;;;4895165;29;20493;-67
2021/12/08 05:32:59;;;;;;;11.68;6.65;;;4.60;99.90;;;;;;4901927;29;20107;-66
2021/12/08 05:35:26;;;;;;;9.10;6.53;;;4.60;99.90;;;;;;4918118;29;20048;-66
2021/12/08 05:37:52;;;;;;;10.27;6.80;;;4.70;99.90;;;;;;4918016;29;20131;-66
2021/12/08 05:40:23;;;;;;;10.40;6.80;;;4.80;99.90;;;;;;4903831;29;20053;-67
2021/12/08 05:42:49;;;;;;;8.85;6.68;;;4.70;99.90;;;;;;4867333;29;20056;-66
2021/12/08 05:45:18;;;;;;;11.40;7.03;;;4.70;99.90;;;;;;4899446;29;20059;-67
2021/12/08 05:47:47;;;;;;;9.82;7.45;;;4.80;99.90;;;;;;4884431;29;20052;-67
2021/12/08 05:50:18;;;;;;;9.25;6.10;;;4.80;99.90;;;;;;4884576;29;20064;-66
2021/12/08 05:52:44;;;;;;;8.38;6.40;;;4.70;99.90;;;;;;4917507;29;20060;-68
2021/12/08 05:55:11;;;;;;;10.25;6.65;;;4.70;99.90;;;;;;4917954;29;20394;-67
2021/12/08 05:57:41;;;;;;;10.48;6.25;;;4.60;99.90;;;;;;4901602;29;20059;-67
2021/12/08 06:00:18;;;;;;;9.52;6.25;;;4.60;99.90;;;;;;4884667;29;20181;-66
2021/12/08 06:02:45;;;;;;;7.72;5.82;;;4.50;99.90;;;;;;4894904;29;20406;-67
2021/12/08 06:05:11;;;;;;;10.05;6.30;;;4.40;99.90;;;;;;4907168;29;20074;-66
2021/12/08 06:07:38;;;;;;;8.63;6.00;;;4.50;99.90;;;;;;4917707;29;20059;-67
2021/12/08 06:10:09;;;;;;;8.95;6.90;;;4.40;99.90;;;;;;4900683;29;20079;-67
2021/12/08 06:12:35;;;;;;;8.48;5.53;;;4.40;99.90;;;;;;4892661;29;20049;-66
2021/12/08 06:15:01;;;;;;;7.03;5.95;;;4.30;99.90;;;;;;4900486;29;20056;-67
2021/12/08 06:17:31;;;;;;;10.68;5.85;;;4.30;99.90;;;;;;4898581;29;20063;-66
2021/12/08 06:19:57;;;;;;;8.25;5.53;;;4.30;99.90;;;;;;4910951;29;20102;-67
2021/12/08 06:22:27;;;;;;;7.72;5.35;;;4.20;99.90;;;;;;4884834;29;20057;-66
2021/12/08 06:24:52;;;;;;;12.02;7.30;;;4.20;99.90;;;;;;4908774;29;20044;-66
2021/12/08 06:27:18;;;;;;;10.43;6.55;;;4.20;99.90;;;;;;4914868;29;20052;-68
2021/12/08 06:29:46;;;;;;;8.93;5.82;;;4.20;99.90;;;;;;4915248;29;20056;-67
2021/12/08 06:32:13;;;;;;;9.85;5.85;;;4.20;99.90;;;;;;4900253;29;20055;-65
2021/12/08 06:34:43;;;;;;;16.30;9.40;;;4.20;99.90;;;;;;4897372;29;20068;-66
2021/12/08 06:37:14;;;;;;;18.13;10.57;;;4.10;99.90;;;;;;4881931;29;20053;-66
2021/12/08 06:39:44;;;;;;;14.23;7.50;;;4.10;99.90;;;;;;4894726;29;20063;-65
2021/12/08 06:42:15;;;;;;;18.65;11.02;;;4.10;99.90;;;;;;4915624;29;20067;-66
2021/12/08 06:44:44;;;;;;;12.65;6.18;;;4.10;99.90;;;;;;4888122;29;20493;-67
2021/12/08 06:47:16;;;;;;;10.52;6.70;;;4.20;99.90;;;;;;4900052;29;20358;-67
2021/12/08 06:49:43;;;;;;;45.08;21.25;;;4.10;99.90;;;;;;4896079;29;20052;-67
2021/12/08 06:52:14;;;;;;;17.75;9.65;;;4.10;99.90;;;;;;4898411;29;20045;-66
2021/12/08 06:54:48;;;;;;;11.57;6.28;;;4.10;99.90;;;;;;4885899;29;20401;-66
2021/12/08 06:57:23;;;;;;;8.10;5.85;;;4.10;99.90;;;;;;4883084;29;20427;-67
2021/12/08 07:00:00;;;;;;;8.98;5.28;;;4.10;99.90;;;;;;4884432;29;20100;-68
2021/12/08 07:02:57;;;;;;;9.23;4.90;;;4.10;99.90;;;;;;4897732;29;20151;-67
2021/12/08 07:05:31;;;;;;;9.57;4.80;;;4.10;99.90;;;;;;4896135;29;20112;-66
2021/12/08 07:08:08;;;;;;;8.90;4.32;;;4.10;99.90;;;;;;4897846;29;20060;-66
2021/12/08 07:10:40;;;;;;;6.75;5.70;;;4.10;99.90;;;;;;4881173;29;20097;-67
2021/12/08 07:13:12;;;;;;;9.75;5.50;;;4.10;99.90;;;;;;4897431;29;20135;-67
2021/12/08 07:15:48;;;;;;;11.02;8.38;;;4.10;99.90;;;;;;4881299;29;20056;-66
2021/12/08 07:18:24;;;;;;;12.05;7.10;;;4.10;99.90;;;;;;4897058;29;20064;-67
2021/12/08 07:21:00;;;;;;;16.27;10.68;;;4.10;99.90;;;;;;4916499;29;20052;-66
2021/12/08 07:23:36;;;;;;;10.73;7.65;;;4.10;99.90;;;;;;4884425;29;20120;-66
2021/12/08 07:26:16;;;;;;;9.70;6.90;;;4.10;99.90;;;;;;4898070;29;20090;-66
2021/12/08 07:28:42;;;;;;;10.70;7.90;;;4.10;99.90;;;;;;4896673;29;20346;-66
2021/12/08 07:31:16;;;;;;;6.72;3.45;;;4.10;99.90;;;;;;4899357;29;20048;-67
2021/12/08 07:33:43;;;;;;;8.88;5.10;;;4.10;99.90;;;;;;4882302;29;20417;-68
2021/12/08 07:36:14;;;;;;;9.70;6.85;;;4.10;99.90;;;;;;4897454;29;20082;-66
2021/12/08 07:38:41;;;;;;;9.50;5.80;;;4.10;99.90;;;;;;4901341;29;20477;-67
2021/12/08 07:41:13;;;;;;;6.55;4.45;;;4.10;99.90;;;;;;4913600;29;20415;-66
2021/12/08 07:43:44;;;;;;;8.75;4.78;;;4.10;99.90;;;;;;4898986;29;20103;-67
2021/12/08 07:46:15;;;;;;;9.23;3.90;;;4.20;99.90;;;;;;4901582;29;20112;-67
2021/12/08 07:48:46;;;;;;;8.20;4.15;;;4.10;99.90;;;;;;4884749;29;20096;-66
2021/12/08 07:51:26;;;;;;;4.80;3.67;;;4.20;99.90;;;;;;4885042;29;20057;-67
2021/12/08 07:53:52;;;;;;;8.73;3.60;;;4.20;99.90;;;;;;4901553;29;20080;-67
2021/12/08 07:56:21;;;;;;;7.85;3.40;;;4.20;99.90;;;;;;4908420;29;20064;-66
2021/12/08 07:58:57;;;;;;;6.63;3.40;;;4.30;99.90;;;;;;4884438;29;20095;-68
2021/12/08 08:01:30;;;;;;;6.47;3.20;;;4.30;99.90;;;;;;4884016;29;20450;-67
2021/12/08 08:03:56;;;;;;;7.18;3.80;;;4.30;99.90;;;;;;4865893;29;20049;-67
2021/12/08 08:06:33;;;;;;;7.35;3.42;;;4.30;99.90;;;;;;4880930;29;20112;-67
2021/12/08 08:08:59;;;;;;;6.63;3.22;;;4.30;99.90;;;;;;4887247;29;20048;-66
2021/12/08 08:11:31;;;;;;;4.35;3.00;;;4.30;99.90;;;;;;4915071;29;20056;-67
2021/12/08 08:13:57;;;;;;;;;;;4.30;99.90;;;;;;4902981;29;20107;-67
2021/12/08 08:16:26;;;;;;;6.82;3.50;;;4.30;99.90;;;;;;4902774;29;20380;-67
2021/12/08 08:19:01;;;;;;;6.25;3.15;;;4.30;99.90;;;;;;4902657;29;20401;-68
2021/12/08 08:21:30;;;;;;;6.72;3.17;;;4.30;99.90;;;;;;4895334;29;20064;-67
2021/12/08 08:24:00;;;;;;;7.85;3.35;;;4.30;99.90;;;;;;4883718;29;20524;-68
2021/12/08 08:26:26;;;;;;;7.30;2.80;;;4.30;99.90;;;;;;4869478;29;20115;-68
2021/12/08 08:28:53;;;;;;;6.65;2.92;;;4.40;99.90;;;;;;4906202;29;20065;-67
2021/12/08 08:31:31;;;;;;;7.80;2.88;;;4.30;99.90;;;;;;4900874;29;20061;-67
2021/12/08 08:33:57;;;;;;;4.95;2.80;;;4.40;99.90;;;;;;4883637;29;20080;-67
2021/12/08 08:36:31;;;;;;;9.52;3.08;;;4.50;99.90;;;;;;4887318;29;20060;-68
2021/12/08 08:39:05;;;;;;;6.95;2.75;;;4.40;99.90;;;;;;4907054;29;20059;-67
2021/12/08 08:41:36;;;;;;;10.13;3.28;;;4.50;99.90;;;;;;4900572;29;20493;-68
2021/12/08 08:44:09;;;;;;;10.55;2.60;;;4.50;99.90;;;;;;4900704;29;20493;-68
2021/12/08 08:46:40;;;;;;;5.82;2.90;;;4.50;99.90;;;;;;4883842;29;20142;-67
2021/12/08 08:49:13;;;;;;;7.75;3.25;;;4.60;99.90;;;;;;4883522;29;20409;-69
2021/12/08 08:51:49;;;;;;;8.98;3.10;;;4.60;99.90;;;;;;4882801;29;20136;-68
2021/12/08 08:54:23;;;;;;;6.55;2.72;;;4.70;99.90;;;;;;4900399;29;20096;-68
2021/12/08 08:57:00;;;;;;;8.13;3.55;;;4.70;99.90;;;;;;4899198;29;20056;-67
2021/12/08 08:59:43;;;;;;;8.20;2.80;;;4.80;99.90;;;;;;4883030;29;20103;-66
2021/12/08 09:02:10;;;;;;;6.97;2.58;;;4.90;99.90;;;;;;4868267;29;20092;-69
2021/12/08 09:04:39;;;;;;;8.27;2.92;;;5.00;99.90;;;;;;4882598;29;20176;-67
2021/12/08 09:07:09;;;;;;;7.90;2.70;;;5.00;99.90;;;;;;4883648;29;20064;-66
2021/12/08 09:09:39;;;;;;;7.15;3.40;;;5.10;99.90;;;;;;4882744;29;20457;-68
2021/12/08 09:12:27;;;;;;;8.25;2.55;;;5.10;99.90;;;;;;4887756;29;20059;-68
2021/12/08 09:15:08;;;;;;;6.63;2.60;;;5.10;99.90;;;;;;4897316;29;20052;-68
2021/12/08 09:17:41;;;;;;;8.52;2.60;;;5.20;99.90;;;;;;4886783;29;20044;-68
2021/12/08 09:20:20;;;;;;;7.57;2.78;;;5.10;99.90;;;;;;4897840;29;20386;-67
2021/12/08 09:23:13;;;;;;;8.90;3.00;;;5.00;99.90;;;;;;4871958;29;20140;-68
2021/12/08 09:25:42;;;;;;;;;;;5.20;99.90;;;;;;4884191;29;20136;-67
2021/12/08 09:28:15;;;;;;;7.95;2.80;;;5.10;99.90;;;;;;4888368;29;19995;-68
2021/12/08 09:30:50;;;;;;;7.72;3.45;;;5.10;99.90;;;;;;4886280;29;20040;-68
2021/12/08 09:33:24;;;;;;;20.63;7.68;;;5.10;99.90;;;;;;4901753;29;20087;-68
2021/12/08 09:35:55;;;;;;;9.95;3.63;;;5.10;99.90;;;;;;4884913;29;20060;-67
2021/12/08 09:38:30;;;;;;;8.25;3.58;;;5.20;99.90;;;;;;4898935;29;20059;-68
2021/12/08 09:41:07;;;;;;;10.57;3.10;;;5.10;99.90;;;;;;4898878;29;20048;-67
2021/12/08 09:43:38;;;;;;;8.40;2.78;;;5.20;99.90;;;;;;4902897;29;20044;-68
2021/12/08 09:46:12;;;;;;;6.32;2.63;;;5.20;99.90;;;;;;4894841;29;20061;-68
2021/12/08 09:48:41;;;;;;;7.38;3.25;;;5.20;99.90;;;;;;4885068;29;20048;-67
2021/12/08 09:51:07;;;;;;;8.98;3.53;;;5.20;99.90;;;;;;4889684;29;20392;-69
2021/12/08 09:53:34;;;;;;;8.38;2.97;;;5.20;99.90;;;;;;4889184;29;20056;-68
2021/12/08 09:56:01;;;;;;;7.60;2.47;;;5.30;99.90;;;;;;4882359;29;20410;-68
2021/12/08 09:58:27;;;;;;;9.25;2.97;;;5.30;99.90;;;;;;4899244;29;20063;-69
2021/12/08 10:00:55;;;;;;;7.72;2.75;;;5.40;99.90;;;;;;4911511;29;20378;-67
2021/12/08 10:03:21;;;;;;;6.47;2.78;;;5.40;99.90;;;;;;4908998;29;20053;-67
2021/12/08 10:05:47;;;;;;;10.65;3.03;;;5.60;99.90;;;;;;4887529;29;20076;-68
2021/12/08 10:08:13;;;;;;;12.77;4.60;;;5.60;99.90;;;;;;4908171;29;20126;-68
2021/12/08 10:10:41;;;;;;;6.20;2.78;;;5.60;99.90;;;;;;4899290;29;20493;-68
2021/12/08 10:13:08;;;;;;;10.27;3.63;;;5.60;99.90;;;;;;4907249;29;20152;-68
2021/12/08 10:15:34;;;;;;;8.05;3.38;;;5.70;99.90;;;;;;4907857;29;20063;-68
2021/12/08 10:18:00;;;;;;;10.80;3.88;;;5.70;99.90;;;;;;4885635;29;20060;-66
2021/12/08 10:20:33;;;;;;;9.00;3.00;;;5.70;99.90;;;;;;4898195;29;20067;-68
2021/12/08 10:23:19;;;;;;;8.35;3.50;;;5.70;99.90;;;;;;4898725;29;20056;-68
2021/12/08 10:25:58;;;;;;;4.95;3.03;;;5.80;99.90;;;;;;4898721;29;20111;-67
2021/12/08 10:28:34;;;;;;;8.95;3.10;;;5.80;99.90;;;;;;4898599;29;20057;-66
2021/12/08 10:31:12;;;;;;;11.25;2.90;;;5.80;99.90;;;;;;4898568;29;20060;-68
2021/12/08 10:34:23;;;;;;;10.75;3.47;;;5.80;99.90;;;;;;4916304;29;20063;-67
2021/12/08 10:36:59;;;;;;;5.10;2.80;;;5.80;99.90;;;;;;4913880;29;20074;-67
2021/12/08 10:39:29;;;;;;;9.93;2.80;;;5.80;99.90;;;;;;4885605;29;20107;-67
2021/12/08 10:41:57;;;;;;;8.70;2.90;;;5.70;99.90;;;;;;4904051;29;20088;-67
2021/12/08 10:44:24;;;;;;;9.10;3.10;;;5.70;99.90;;;;;;4911735;29;20056;-68
2021/12/08 10:46:55;;;;;;;9.25;3.58;;;5.70;99.90;;;;;;4909121;29;20489;-69
2021/12/08 10:54:23;;;;;;;6.82;2.97;;;5.70;99.90;;;;;;4880873;29;20048;-69
2021/12/08 10:54:53;;;;;;;10.18;3.40;;;5.70;99.90;;;;;;4898139;29;20117;-68
2021/12/08 10:57:31;;;;;;;9.43;2.85;;;5.80;99.90;;;;;;4881299;29;20413;-68
2021/12/08 11:00:09;;;;;;;7.75;3.15;;;5.80;99.90;;;;;;4898129;29;20064;-67
2021/12/08 11:02:50;;;;;;;6.28;2.60;;;5.80;99.90;;;;;;4880931;29;20063;-67
2021/12/08 11:05:24;;;;;;;5.85;2.88;;;5.80;99.90;;;;;;4910865;29;20127;-69
2021/12/08 11:08:00;;;;;;;5.50;2.88;;;5.80;99.90;;;;;;4879666;29;20135;-67
2021/12/08 11:10:26;;;;;;;6.60;2.40;;;5.90;99.90;;;;;;4879513;29;20064;-68
2021/12/08 11:12:54;;;;;;;6.93;3.00;;;5.90;99.90;;;;;;4863257;29;20140;-66
2021/12/08 11:15:22;;;;;;;8.65;4.70;;;6.00;99.90;;;;;;4867468;29;20056;-67
2021/12/08 11:18:05;;;;;;;10.43;3.08;;;6.00;99.90;;;;;;4909687;29;20051;-67
2021/12/08 11:20:32;;;;;;;;;;;6.10;99.90;;;;;;4881352;29;20052;-69
2021/12/08 11:23:03;;;;;;;7.32;2.97;;;6.10;99.90;;;;;;4896517;29;19923;-67
2021/12/08 11:25:40;;;;;;;7.57;3.30;;;6.10;99.90;;;;;;4902756;29;20162;-68
2021/12/08 11:28:29;;;;;;;5.35;2.88;;;6.10;99.90;;;;;;4898115;29;20374;-68
2021/12/08 11:31:06;;;;;;;7.68;3.05;;;6.20;99.90;;;;;;4884788;29;20053;-68
2021/12/08 11:33:32;;;;;;;6.85;3.38;;;6.20;99.90;;;;;;4906811;29;20119;-67
2021/12/08 11:36:38;;;;;;;5.15;2.90;;;6.20;99.90;;;;;;4914962;29;20131;-68
2021/12/08 11:39:15;;;;;;;11.90;2.80;;;6.20;99.90;;;;;;4879959;29;20067;-66
2021/12/08 11:41:43;;;;;;;8.77;3.55;;;6.20;99.90;;;;;;4891735;29;20055;-68
2021/12/08 11:44:22;;;;;;;11.25;3.47;;;6.20;99.90;;;;;;4900874;29;20052;-67
2021/12/08 11:46:52;;;;;;;9.48;3.70;;;6.20;99.90;;;;;;4886036;29;20057;-68
2021/12/08 11:49:20;;;;;;;9.25;3.53;;;6.20;99.90;;;;;;4897520;29;20373;-67
2021/12/08 11:51:56;;;;;;;7.70;3.28;;;6.20;99.90;;;;;;4888846;29;20421;-67
2021/12/08 11:54:22;;;;;;;9.57;3.28;;;6.20;99.90;;;;;;4876092;29;20503;-68
2021/12/08 11:56:48;;;;;;;6.50;3.47;;;6.10;99.90;;;;;;4903363;29;20052;-68
2021/12/08 11:59:14;;;;;;;5.93;3.22;;;6.20;99.90;;;;;;4888731;29;20083;-67
2021/12/08 12:01:40;;;;;;;8.52;3.38;;;6.10;99.90;;;;;;4898911;29;20049;-68
2021/12/08 12:04:09;;;;;;;8.02;3.60;;;6.10;99.90;;;;;;4898637;29;20121;-69
2021/12/08 12:06:36;;;;;;;9.63;3.22;;;6.10;99.90;;;;;;4880036;29;20067;-68
2021/12/08 12:09:04;;;;;;;9.68;3.13;;;6.10;99.90;;;;;;4897904;29;20052;-68
2021/12/08 12:11:31;;;;;;;8.75;2.83;;;6.00;99.90;;;;;;4880620;29;20052;-68
2021/12/08 12:13:59;;;;;;;5.22;2.67;;;6.10;99.90;;;;;;4897807;29;20065;-68
2021/12/08 12:16:25;;;;;;;7.05;3.05;;;6.10;99.90;;;;;;4912992;29;20139;-68
2021/12/08 12:18:54;;;;;;;6.18;3.00;;;6.00;99.90;;;;;;4901197;29;20061;-68
2021/12/08 12:21:46;;;;;;;7.22;2.78;;;6.00;99.90;;;;;;4880200;29;20083;-67
2021/12/08 12:24:28;;;;;;;7.22;3.10;;;6.00;99.90;;;;;;4891152;29;20056;-67
2021/12/08 12:27:17;;;;;;;6.53;2.60;;;6.00;99.90;;;;;;4919538;29;20066;-68
2021/12/08 12:30:04;;;;;;;5.60;2.53;;;6.00;99.90;;;;;;4919499;29;20052;-67
2021/12/08 12:32:50;;;;;;;4.28;2.65;;;6.00;99.90;;;;;;4919885;29;20500;-67
2021/12/08 12:35:25;;;;;;;6.65;2.60;;;6.00;99.90;;;;;;4900401;29;20119;-67
2021/12/08 12:37:59;;;;;;;6.07;2.55;;;6.00;99.90;;;;;;4902421;29;20501;-67
2021/12/08 12:40:37;;;;;;;7.30;2.55;;;6.00;99.90;;;;;;4883442;29;20132;-69
2021/12/08 12:43:04;;;;;;;6.78;2.50;;;5.90;99.90;;;;;;4884342;29;20060;-67
2021/12/08 12:45:39;;;;;;;17.67;3.15;;;5.90;99.90;;;;;;4899935;29;20143;-68
2021/12/08 12:48:16;;;;;;;7.45;2.72;;;5.90;99.90;;;;;;4900481;29;20497;-68
2021/12/08 12:51:03;;;;;;;7.70;2.70;;;5.90;99.90;;;;;;4883404;29;20381;-68
2021/12/08 12:53:38;;;;;;;8.35;2.60;;;5.90;99.90;;;;;;4883947;29;20136;-67
2021/12/08 12:56:12;;;;;;;8.00;2.70;;;5.90;99.90;;;;;;4896590;29;20050;-67
2021/12/08 12:58:47;;;;;;;10.73;3.13;;;5.90;99.90;;;;;;4900578;29;20065;-67
2021/12/08 13:01:16;;;;;;;6.75;2.42;;;5.90;99.90;;;;;;4899880;29;20071;-68
2021/12/08 13:03:51;;;;;;;9.25;3.60;;;6.00;99.90;;;;;;4900371;29;20379;-67
2021/12/08 13:06:49;;;;;;;10.55;4.47;;;6.00;99.90;;;;;;4912240;29;20111;-67
2021/12/08 13:09:43;;;;;;;5.93;3.15;;;6.00;99.90;;;;;;4914959;29;20060;-66
2021/12/08 13:12:35;;;;;;;10.50;3.15;;;6.00;99.90;;;;;;4902473;29;20056;-68
2021/12/08 13:15:23;;;;;;;8.07;2.70;;;6.10;99.90;;;;;;4901295;29;20055;-68
2021/12/08 13:17:59;;;;;;;6.30;2.40;;;6.10;99.90;;;;;;4873215;29;20289;-67
2021/12/08 13:20:27;;;;;;;10.10;2.58;;;6.10;99.90;;;;;;4899611;29;20139;-67
2021/12/08 13:23:00;;;;;;;8.48;2.97;;;6.10;99.90;;;;;;4899777;29;20604;-68
2021/12/08 13:25:25;;;;;;;9.15;2.72;;;6.00;99.90;;;;;;4882917;29;20044;-67
2021/12/08 13:28:06;;;;;;;8.88;2.85;;;6.00;99.90;;;;;;4898823;29;20056;-67
2021/12/08 13:30:32;;;;;;;7.75;3.20;;;6.00;99.90;;;;;;4899397;29;20063;-67
2021/12/08 13:33:07;;;;;;;5.43;2.80;;;6.00;99.90;;;;;;4899861;29;20049;-67
2021/12/08 13:35:37;;;;;;;3.88;2.53;;;6.00;99.90;;;;;;4898856;29;20056;-68
2021/12/08 13:38:04;;;;;;;4.97;2.38;;;6.10;99.90;;;;;;4899863;29;20148;-67
2021/12/08 13:40:55;;;;;;;7.07;2.72;;;6.00;99.90;;;;;;4899280;29;20511;-66
2021/12/08 13:43:34;;;;;;;8.23;2.80;;;6.10;99.90;;;;;;4899023;29;20173;-67
2021/12/08 13:46:00;;;;;;;7.18;3.13;;;6.10;99.90;;;;;;4898028;29;20060;-68
2021/12/08 13:48:26;;;;;;;8.93;3.35;;;6.00;99.90;;;;;;4882987;29;20052;-68
2021/12/08 13:50:51;;;;;;;5.50;2.60;;;6.10;99.90;;;;;;4882249;29;20192;-68
2021/12/08 13:53:17;;;;;;;6.47;2.80;;;6.10;99.90;;;;;;4882733;29;20078;-69